createdAt,value
2023-05-14T00:00:25.874Z,82.89
2023-05-14T00:01:25.774Z,83.30
2023-05-14T00:02:25.782Z,83.34
2023-05-14T00:03:25.811Z,83.34
2023-05-14T00:04:25.753Z,83.34
2023-05-14T00:05:25.701Z,82.93
2023-05-14T00:06:25.656Z,82.63
2023-05-14T00:07:25.676Z,82.63
2023-05-14T00:08:25.661Z,82.73
2023-05-14T00:09:25.644Z,82.53
2023-05-14T00:10:25.735Z,82.32
2023-05-14T00:11:25.623Z,82.32
2023-05-14T00:12:25.597Z,82.42
2023-05-14T00:13:25.579Z,82.63
2023-05-14T00:14:25.558Z,82.83
2023-05-14T00:15:25.553Z,83.07
2023-05-14T00:16:25.654Z,83.07
2023-05-14T00:17:25.574Z,83.14
2023-05-14T00:18:25.649Z,83.28
2023-05-14T00:19:25.552Z,83.48
2023-05-14T00:20:25.698Z,83.48
2023-05-14T00:21:25.523Z,83.59
2023-05-14T00:22:25.469Z,83.69
2023-05-14T00:23:25.503Z,83.79
2023-05-14T00:24:25.461Z,83.89
2023-05-14T00:25:25.467Z,84.00
2023-05-14T00:26:25.441Z,84.00
2023-05-14T00:27:25.439Z,84.00
2023-05-14T00:28:25.394Z,84.00
2023-05-14T00:29:25.424Z,84.03
2023-05-14T00:30:25.579Z,84.24
2023-05-14T00:31:25.425Z,84.34
2023-05-14T00:32:25.485Z,84.44
2023-05-14T00:33:25.364Z,84.44
2023-05-14T00:34:25.336Z,84.44
2023-05-14T00:35:25.380Z,84.44
2023-05-14T00:36:25.341Z,84.44
2023-05-14T00:37:25.350Z,84.44
2023-05-14T00:38:25.295Z,84.44
2023-05-14T00:39:25.298Z,84.44
2023-05-14T00:40:25.514Z,84.44
2023-05-14T00:41:25.304Z,84.55
2023-05-14T00:42:25.241Z,84.55
2023-05-14T00:43:25.269Z,84.55
2023-05-14T00:44:25.221Z,84.55
2023-05-14T00:45:25.226Z,84.55
2023-05-14T00:46:25.229Z,84.65
2023-05-14T00:47:25.259Z,84.69
2023-05-14T00:48:25.184Z,84.58
2023-05-14T00:49:25.190Z,84.69
2023-05-14T00:50:25.422Z,84.48
2023-05-14T00:51:25.184Z,84.28
2023-05-14T00:52:25.144Z,84.28
2023-05-14T00:53:25.134Z,84.48
2023-05-14T00:54:25.106Z,84.58
2023-05-14T00:55:25.112Z,84.58
2023-05-14T00:56:25.101Z,84.58
2023-05-14T00:57:25.114Z,84.38
2023-05-14T00:58:25.068Z,84.38
2023-05-14T00:59:25.080Z,84.48
2023-05-14T01:00:25.299Z,84.48
2023-05-14T01:01:25.163Z,84.28
2023-05-14T01:02:25.088Z,84.17
2023-05-14T01:03:25.236Z,84.07
2023-05-14T01:04:24.998Z,84.17
2023-05-14T01:05:25.027Z,84.28
2023-05-14T01:06:25.005Z,84.38
2023-05-14T01:07:24.981Z,84.28
2023-05-14T01:08:24.980Z,84.28
2023-05-14T01:09:24.975Z,84.28
2023-05-14T01:10:25.328Z,84.28
2023-05-14T01:11:24.970Z,84.28
2023-05-14T01:12:24.897Z,84.28
2023-05-14T01:13:24.936Z,84.28
2023-05-14T01:14:24.896Z,84.28
2023-05-14T01:15:24.898Z,84.28
2023-05-14T01:16:24.929Z,84.28
2023-05-14T01:17:24.992Z,84.38
2023-05-14T01:18:24.900Z,84.48
2023-05-14T01:19:24.891Z,84.38
2023-05-14T01:20:25.114Z,84.48
2023-05-14T01:21:24.859Z,84.48
2023-05-14T01:22:24.796Z,84.38
2023-05-14T01:23:24.841Z,84.48
2023-05-14T01:24:24.767Z,84.52
2023-05-14T01:25:24.791Z,84.42
2023-05-14T01:26:24.786Z,84.42
2023-05-14T01:27:24.761Z,84.31
2023-05-14T01:28:24.738Z,84.31
2023-05-14T01:29:25.652Z,84.22
2023-05-14T01:30:25.053Z,84.22
2023-05-14T01:31:24.780Z,84.31
2023-05-14T01:32:24.763Z,84.42
2023-05-14T01:33:24.705Z,84.52
2023-05-14T01:34:24.678Z,84.52
2023-05-14T01:35:24.711Z,84.31
2023-05-14T01:36:24.642Z,84.31
2023-05-14T01:37:24.688Z,84.52
2023-05-14T01:38:24.617Z,84.77
2023-05-14T01:39:24.638Z,84.97
2023-05-14T01:40:24.945Z,84.97
2023-05-14T01:41:24.623Z,85.17
2023-05-14T01:42:24.590Z,85.17
2023-05-14T01:43:24.652Z,85.07
2023-05-14T01:44:24.550Z,85.07
2023-05-14T01:45:24.588Z,85.17
2023-05-14T01:46:24.596Z,85.17
2023-05-14T01:47:24.612Z,85.07
2023-05-14T01:48:24.501Z,84.97
2023-05-14T01:49:24.525Z,84.97
2023-05-14T01:50:24.701Z,85.07
2023-05-14T01:51:24.548Z,85.17
2023-05-14T01:52:24.488Z,85.28
2023-05-14T01:53:24.494Z,85.42
2023-05-14T01:54:24.455Z,85.52
2023-05-14T01:55:24.494Z,85.31
2023-05-14T01:56:24.509Z,85.22
2023-05-14T01:57:24.424Z,85.52
2023-05-14T01:58:24.417Z,85.83
2023-05-14T01:59:24.406Z,85.83
2023-05-14T02:00:24.740Z,85.83
2023-05-14T02:01:24.450Z,85.83
2023-05-14T02:02:24.404Z,85.83
2023-05-14T02:03:24.365Z,85.72
2023-05-14T02:04:24.472Z,85.83
2023-05-14T02:05:24.368Z,85.93
2023-05-14T02:06:24.305Z,86.04
2023-05-14T02:07:24.319Z,86.04
2023-05-14T02:08:24.291Z,85.93
2023-05-14T02:09:24.297Z,85.72
2023-05-14T02:10:28.085Z,85.83
2023-05-14T02:11:24.296Z,85.93
2023-05-14T02:12:24.256Z,85.93
2023-05-14T02:13:24.268Z,85.93
2023-05-14T02:14:24.213Z,85.83
2023-05-14T02:15:24.237Z,85.83
2023-05-14T02:16:24.303Z,85.83
2023-05-14T02:17:24.263Z,85.83
2023-05-14T02:18:24.411Z,85.83
2023-05-14T02:19:24.192Z,85.97
2023-05-14T02:20:24.526Z,85.97
2023-05-14T02:21:24.184Z,86.18
2023-05-14T02:22:24.148Z,86.18
2023-05-14T02:23:34.137Z,86.18
2023-05-14T02:24:25.104Z,86.28
2023-05-14T02:25:24.140Z,86.18
2023-05-14T02:26:24.103Z,86.18
2023-05-14T02:27:24.120Z,86.28
2023-05-14T02:28:24.065Z,86.28
2023-05-14T02:29:24.100Z,86.28
2023-05-14T02:30:24.226Z,86.28
2023-05-14T02:31:24.098Z,86.38
2023-05-14T02:32:24.123Z,86.28
2023-05-14T02:33:24.100Z,86.28
2023-05-14T02:34:23.993Z,86.28
2023-05-14T02:35:24.018Z,86.07
2023-05-14T02:36:23.989Z,86.07
2023-05-14T02:37:24.013Z,86.07
2023-05-14T02:38:23.987Z,85.97
2023-05-14T02:39:23.996Z,86.07
2023-05-14T02:40:24.267Z,86.07
2023-05-14T02:41:23.941Z,86.18
2023-05-14T02:42:23.933Z,86.07
2023-05-14T02:43:23.918Z,86.07
2023-05-14T02:44:23.910Z,86.28
2023-05-14T02:45:23.888Z,86.28
2023-05-14T02:46:23.918Z,86.07
2023-05-14T02:47:23.946Z,86.07
2023-05-14T02:48:23.872Z,86.11
2023-05-14T02:49:23.864Z,86.22
2023-05-14T02:50:24.125Z,86.32
2023-05-14T02:51:23.836Z,86.42
2023-05-14T02:52:23.812Z,86.63
2023-05-14T02:53:23.814Z,86.38
2023-05-14T02:54:23.852Z,86.32
2023-05-14T02:55:23.769Z,86.42
2023-05-14T02:56:23.806Z,86.63
2023-05-14T02:57:23.742Z,86.32
2023-05-14T02:58:26.613Z,86.32
2023-05-14T02:59:23.723Z,86.52
2023-05-14T03:00:24.102Z,86.42
2023-05-14T03:01:23.831Z,86.32
2023-05-14T03:02:23.791Z,86.22
2023-05-14T03:03:23.746Z,86.32
2023-05-14T03:04:23.697Z,86.42
2023-05-14T03:05:23.661Z,86.46
2023-05-14T03:06:23.668Z,86.66
2023-05-14T03:07:23.659Z,86.87
2023-05-14T03:08:23.660Z,86.87
2023-05-14T03:09:23.659Z,86.77
2023-05-14T03:10:23.902Z,86.66
2023-05-14T03:11:23.617Z,86.46
2023-05-14T03:12:23.644Z,86.36
2023-05-14T03:13:23.573Z,86.05
2023-05-14T03:14:23.601Z,85.95
2023-05-14T03:15:23.558Z,85.85
2023-05-14T03:16:23.628Z,86.05
2023-05-14T03:17:23.576Z,86.36
2023-05-14T03:18:23.550Z,86.66
2023-05-14T03:19:23.514Z,86.91
2023-05-14T03:20:23.646Z,87.02
2023-05-14T03:21:23.518Z,87.12
2023-05-14T03:22:23.506Z,87.43
2023-05-14T03:23:23.481Z,87.43
2023-05-14T03:24:23.484Z,87.32
2023-05-14T03:25:23.464Z,87.12
2023-05-14T03:26:23.474Z,87.08
2023-05-14T03:27:23.410Z,87.08
2023-05-14T03:28:23.441Z,86.98
2023-05-14T03:29:23.410Z,86.98
2023-05-14T03:30:23.697Z,86.87
2023-05-14T03:31:23.451Z,86.77
2023-05-14T03:32:23.399Z,86.77
2023-05-14T03:33:23.356Z,86.98
2023-05-14T03:34:23.376Z,86.98
2023-05-14T03:35:23.322Z,86.98
2023-05-14T03:36:23.362Z,87.18
2023-05-14T03:37:23.345Z,87.18
2023-05-14T03:38:23.339Z,87.18
2023-05-14T03:39:23.290Z,87.18
2023-05-14T03:40:23.568Z,87.18
2023-05-14T03:41:23.259Z,87.18
2023-05-14T03:42:23.278Z,87.08
2023-05-14T03:43:23.265Z,87.38
2023-05-14T03:44:23.244Z,87.90
2023-05-14T03:45:23.257Z,88.45
2023-05-14T03:46:23.249Z,89.27
2023-05-14T03:47:23.247Z,89.93
2023-05-14T03:48:23.327Z,90.34
2023-05-14T03:49:23.255Z,90.44
2023-05-14T03:50:23.333Z,90.30
2023-05-14T03:51:23.144Z,90.09
2023-05-14T03:52:23.182Z,89.89
2023-05-14T03:53:23.134Z,89.54
2023-05-14T03:54:23.144Z,89.33
2023-05-14T03:55:23.099Z,89.13
2023-05-14T03:56:23.122Z,88.78
2023-05-14T03:57:23.110Z,88.57
2023-05-14T03:58:23.134Z,88.27
2023-05-14T03:59:23.061Z,88.12
2023-05-14T04:00:23.333Z,88.02
2023-05-14T04:01:23.039Z,87.92
2023-05-14T04:02:23.076Z,87.82
2023-05-14T04:03:23.132Z,87.61
2023-05-14T04:04:23.073Z,87.61
2023-05-14T04:05:22.989Z,87.57
2023-05-14T04:06:23.040Z,87.47
2023-05-14T04:07:22.987Z,87.47
2023-05-14T04:08:22.975Z,87.37
2023-05-14T04:09:22.965Z,87.16
2023-05-14T04:10:23.099Z,86.96
2023-05-14T04:11:22.930Z,86.85
2023-05-14T04:12:22.947Z,86.61
2023-05-14T04:13:22.928Z,86.55
2023-05-14T04:14:22.983Z,86.61
2023-05-14T04:15:22.879Z,86.51
2023-05-14T04:16:22.965Z,86.51
2023-05-14T04:17:22.888Z,86.30
2023-05-14T04:18:22.896Z,86.10
2023-05-14T04:19:22.846Z,85.99
2023-05-14T04:20:23.046Z,86.10
2023-05-14T04:21:22.842Z,86.20
2023-05-14T04:22:22.833Z,86.20
2023-05-14T04:23:22.786Z,86.10
2023-05-14T04:24:22.804Z,86.10
2023-05-14T04:25:22.759Z,85.96
2023-05-14T04:26:22.789Z,85.85
2023-05-14T04:27:22.761Z,85.64
2023-05-14T04:28:22.769Z,85.44
2023-05-14T04:29:22.721Z,85.34
2023-05-14T04:30:23.061Z,85.34
2023-05-14T04:31:22.746Z,85.30
2023-05-14T04:32:22.906Z,85.10
2023-05-14T04:33:22.690Z,84.79
2023-05-14T04:34:22.704Z,84.58
2023-05-14T04:35:24.845Z,84.58
2023-05-14T04:36:22.664Z,84.58
2023-05-14T04:37:22.661Z,84.55
2023-05-14T04:38:22.645Z,84.55
2023-05-14T04:39:22.659Z,84.44
2023-05-14T04:40:23.700Z,84.34
2023-05-14T04:41:22.586Z,84.44
2023-05-14T04:42:22.602Z,84.24
2023-05-14T04:43:22.590Z,84.14
2023-05-14T04:44:22.579Z,84.14
2023-05-14T04:45:22.569Z,84.14
2023-05-14T04:46:22.633Z,84.14
2023-05-14T04:47:22.573Z,84.14
2023-05-14T04:48:22.550Z,83.79
2023-05-14T04:49:23.212Z,83.59
2023-05-14T04:50:22.771Z,83.79
2023-05-14T04:51:22.463Z,84.00
2023-05-14T04:52:22.523Z,84.00
2023-05-14T04:53:22.466Z,83.79
2023-05-14T04:54:22.524Z,83.69
2023-05-14T04:55:22.424Z,83.69
2023-05-14T04:56:22.478Z,83.79
2023-05-14T04:57:22.413Z,83.69
2023-05-14T04:58:22.451Z,83.34
2023-05-14T04:59:22.410Z,82.59
2023-05-14T05:00:22.742Z,82.28
2023-05-14T05:01:22.481Z,82.28
2023-05-14T05:02:22.455Z,82.18
2023-05-14T05:03:22.402Z,82.28
2023-05-14T05:04:22.355Z,82.28
2023-05-14T05:05:22.372Z,82.39
2023-05-14T05:06:22.345Z,82.49
2023-05-14T05:07:22.344Z,82.39
2023-05-14T05:08:22.332Z,82.39
2023-05-14T05:09:22.272Z,82.18
2023-05-14T05:10:23.482Z,82.08
2023-05-14T05:11:22.255Z,82.04
2023-05-14T05:12:22.280Z,81.84
2023-05-14T05:13:22.287Z,81.59
2023-05-14T05:14:22.250Z,81.18
2023-05-14T05:15:22.902Z,80.78
2023-05-14T05:16:22.331Z,80.88
2023-05-14T05:17:22.210Z,81.09
2023-05-14T05:18:22.214Z,81.18
2023-05-14T05:19:29.168Z,81.43
2023-05-14T05:20:23.400Z,81.59
2023-05-14T05:21:22.181Z,81.80
2023-05-14T05:22:22.188Z,81.39
2023-05-14T05:23:22.184Z,81.39
2023-05-14T05:24:22.201Z,81.49
2023-05-14T05:25:22.127Z,81.59
2023-05-14T05:26:22.136Z,80.94
2023-05-14T05:27:22.096Z,80.54
2023-05-14T05:28:22.089Z,80.50
2023-05-14T05:29:22.077Z,80.29
2023-05-14T05:30:22.289Z,80.19
2023-05-14T05:31:22.059Z,80.29
2023-05-14T05:32:22.057Z,80.26
2023-05-14T05:33:22.017Z,80.16
2023-05-14T05:34:22.050Z,80.40
2023-05-14T05:35:22.011Z,80.50
2023-05-14T05:36:22.006Z,80.29
2023-05-14T05:37:21.987Z,80.05
2023-05-14T05:38:21.983Z,79.95
2023-05-14T05:39:21.943Z,79.95
2023-05-14T05:40:22.151Z,80.50
2023-05-14T05:41:21.926Z,80.80
2023-05-14T05:42:21.971Z,81.21
2023-05-14T05:43:21.898Z,81.21
2023-05-14T05:44:21.928Z,81.56
2023-05-14T05:45:22.822Z,81.66
2023-05-14T05:46:21.943Z,81.56
2023-05-14T05:47:22.862Z,81.56
2023-05-14T05:48:21.874Z,81.56
2023-05-14T05:49:21.844Z,81.80
2023-05-14T05:50:22.018Z,82.00
2023-05-14T05:51:21.874Z,81.80
2023-05-14T05:52:21.928Z,82.10
2023-05-14T05:53:21.798Z,82.41
2023-05-14T05:54:21.780Z,82.75
2023-05-14T05:55:21.794Z,82.96
2023-05-14T05:56:21.777Z,83.37
2023-05-14T05:57:21.720Z,83.67
2023-05-14T05:58:21.762Z,83.78
2023-05-14T05:59:21.763Z,83.98
2023-05-14T06:00:21.974Z,84.08
2023-05-14T06:01:21.708Z,84.08
2023-05-14T06:02:21.826Z,84.08
2023-05-14T06:03:21.690Z,84.08
2023-05-14T06:04:21.705Z,84.18
2023-05-14T06:05:21.804Z,84.28
2023-05-14T06:06:21.704Z,84.39
2023-05-14T06:07:21.640Z,84.39
2023-05-14T06:08:21.668Z,84.63
2023-05-14T06:09:21.612Z,84.53
2023-05-14T06:10:21.822Z,84.53
2023-05-14T06:11:21.609Z,84.42
2023-05-14T06:12:21.601Z,84.53
2023-05-14T06:13:21.572Z,84.53
2023-05-14T06:14:21.572Z,84.28
2023-05-14T06:15:21.534Z,84.39
2023-05-14T06:16:21.592Z,84.28
2023-05-14T06:17:21.554Z,84.28
2023-05-14T06:18:21.538Z,84.28
2023-05-14T06:19:21.606Z,84.28
2023-05-14T06:20:21.795Z,84.39
2023-05-14T06:21:21.458Z,84.39
2023-05-14T06:22:21.476Z,84.28
2023-05-14T06:23:21.476Z,84.08
2023-05-14T06:24:21.475Z,83.98
2023-05-14T06:25:21.441Z,83.84
2023-05-14T06:26:21.450Z,84.14
2023-05-14T06:27:21.414Z,83.43
2023-05-14T06:28:21.454Z,83.33
2023-05-14T06:29:21.380Z,83.23
2023-05-14T06:30:21.564Z,83.33
2023-05-14T06:31:21.432Z,83.33
2023-05-14T06:32:21.553Z,83.33
2023-05-14T06:33:21.349Z,83.18
2023-05-14T06:34:21.362Z,83.09
2023-05-14T06:35:21.346Z,82.98
2023-05-14T06:36:21.334Z,83.09
2023-05-14T06:37:21.320Z,83.35
2023-05-14T06:38:21.313Z,83.04
2023-05-14T06:39:21.266Z,82.84
2023-05-14T06:40:21.490Z,82.64
2023-05-14T06:41:21.267Z,82.43
2023-05-14T06:42:21.308Z,82.43
2023-05-14T06:43:21.252Z,82.40
2023-05-14T06:44:21.247Z,82.50
2023-05-14T06:45:21.220Z,82.33
2023-05-14T06:46:21.228Z,82.29
2023-05-14T06:47:21.196Z,82.29
2023-05-14T06:48:21.352Z,82.19
2023-05-14T06:49:21.182Z,81.79
2023-05-14T06:50:21.366Z,81.68
2023-05-14T06:51:21.128Z,81.99
2023-05-14T06:52:21.182Z,82.19
2023-05-14T06:53:21.133Z,81.79
2023-05-14T06:54:21.140Z,81.48
2023-05-14T06:55:21.095Z,81.48
2023-05-14T06:56:21.107Z,81.54
2023-05-14T06:57:21.087Z,81.44
2023-05-14T06:58:21.080Z,81.24
2023-05-14T06:59:21.090Z,80.93
2023-05-14T07:00:21.186Z,80.90
2023-05-14T07:01:21.086Z,80.90
2023-05-14T07:02:21.107Z,80.69
2023-05-14T07:03:21.020Z,80.52
2023-05-14T07:04:21.088Z,81.24
2023-05-14T07:05:20.983Z,81.65
2023-05-14T07:06:20.992Z,82.15
2023-05-14T07:07:20.965Z,82.21
2023-05-14T07:08:20.992Z,82.21
2023-05-14T07:09:20.958Z,82.73
2023-05-14T07:10:21.082Z,82.82
2023-05-14T07:11:20.941Z,82.38
2023-05-14T07:12:20.900Z,81.33
2023-05-14T07:13:20.936Z,80.62
2023-05-14T07:14:20.880Z,80.82
2023-05-14T07:15:20.914Z,80.47
2023-05-14T07:16:20.866Z,80.37
2023-05-14T07:17:20.937Z,79.77
2023-05-14T07:18:20.869Z,78.95
2023-05-14T07:19:20.877Z,78.64
2023-05-14T07:20:20.856Z,78.41
2023-05-14T07:21:20.840Z,78.51
2023-05-14T07:22:20.787Z,78.41
2023-05-14T07:23:20.819Z,78.00
2023-05-14T07:24:20.796Z,77.49
2023-05-14T07:25:20.788Z,77.56
2023-05-14T07:26:20.788Z,77.59
2023-05-14T07:27:20.776Z,77.59
2023-05-14T07:28:20.743Z,78.41
2023-05-14T07:29:20.785Z,78.78
2023-05-14T07:30:20.745Z,78.78
2023-05-14T07:31:20.801Z,78.67
2023-05-14T07:32:20.676Z,77.62
2023-05-14T07:33:20.689Z,76.81
2023-05-14T07:34:20.694Z,76.64
2023-05-14T07:35:20.686Z,77.86
2023-05-14T07:36:20.641Z,77.86
2023-05-14T07:37:22.445Z,78.27
2023-05-14T07:38:20.623Z,77.83
2023-05-14T07:39:20.658Z,77.08
2023-05-14T07:40:20.598Z,76.87
2023-05-14T07:41:20.622Z,75.76
2023-05-14T07:42:34.447Z,75.62
2023-05-14T07:43:21.611Z,75.62
2023-05-14T07:44:20.550Z,75.38
2023-05-14T07:45:20.554Z,74.88
2023-05-14T07:46:20.537Z,73.19
2023-05-14T07:47:20.642Z,73.43
2023-05-14T07:48:20.545Z,74.54
2023-05-14T07:49:20.520Z,75.35
2023-05-14T07:50:20.494Z,75.46
2023-05-14T07:51:20.524Z,75.22
2023-05-14T07:52:20.455Z,74.51
2023-05-14T07:53:20.479Z,75.12
2023-05-14T07:54:20.460Z,75.28
2023-05-14T07:55:20.446Z,74.48
2023-05-14T07:56:20.458Z,74.57
2023-05-14T07:57:20.512Z,74.13
2023-05-14T07:58:20.412Z,73.73
2023-05-14T07:59:20.421Z,73.39
2023-05-14T08:00:20.395Z,73.09
2023-05-14T08:01:20.386Z,73.19
2023-05-14T08:02:20.426Z,73.49
2023-05-14T08:03:20.491Z,73.59
2023-05-14T08:04:20.330Z,73.56
2023-05-14T08:05:20.385Z,73.05
2023-05-14T08:06:20.306Z,72.55
2023-05-14T08:07:20.322Z,71.91
2023-05-14T08:08:20.285Z,72.31
2023-05-14T08:09:20.315Z,72.08
2023-05-14T08:10:20.337Z,71.77
2023-05-14T08:11:20.313Z,72.08
2023-05-14T08:12:20.238Z,71.47
2023-05-14T08:13:20.271Z,71.26
2023-05-14T08:14:20.243Z,71.26
2023-05-14T08:15:20.223Z,71.87
2023-05-14T08:16:20.232Z,71.87
2023-05-14T08:17:20.219Z,71.97
2023-05-14T08:18:20.216Z,71.87
2023-05-14T08:19:20.234Z,71.57
2023-05-14T08:20:20.162Z,71.53
2023-05-14T08:21:20.176Z,71.84
2023-05-14T08:22:20.144Z,72.14
2023-05-14T08:23:20.166Z,71.94
2023-05-14T08:24:20.113Z,71.53
2023-05-14T08:25:20.146Z,71.33
2023-05-14T08:26:20.122Z,71.20
2023-05-14T08:27:20.105Z,70.29
2023-05-14T08:28:20.075Z,70.39
2023-05-14T08:29:20.122Z,69.92
2023-05-14T08:30:20.045Z,70.02
2023-05-14T08:31:20.125Z,69.89
2023-05-14T08:32:23.876Z,69.38
2023-05-14T08:33:20.028Z,69.35
2023-05-14T08:34:20.001Z,69.45
2023-05-14T08:35:20.029Z,69.15
2023-05-14T08:36:20.013Z,69.55
2023-05-14T08:37:20.006Z,68.54
2023-05-14T08:38:19.972Z,69.15
2023-05-14T08:39:19.977Z,68.74
2023-05-14T08:40:19.953Z,68.44
2023-05-14T08:41:19.952Z,68.44
2023-05-14T08:42:19.924Z,69.24
2023-05-14T08:43:19.927Z,69.72
2023-05-14T08:44:19.879Z,69.62
2023-05-14T08:45:19.930Z,70.02
2023-05-14T08:46:19.866Z,69.92
2023-05-14T08:47:19.893Z,69.99
2023-05-14T08:48:19.914Z,69.89
2023-05-14T08:49:19.862Z,69.38
2023-05-14T08:50:22.425Z,69.15
2023-05-14T08:51:19.875Z,67.80
2023-05-14T08:52:19.823Z,69.01
2023-05-14T08:53:19.821Z,69.12
2023-05-14T08:54:19.805Z,66.90
2023-05-14T08:55:19.875Z,66.56
2023-05-14T08:56:19.772Z,65.96
2023-05-14T08:57:19.779Z,66.77
2023-05-14T08:58:19.758Z,66.27
2023-05-14T08:59:19.749Z,65.66
2023-05-14T09:00:19.733Z,64.65
2023-05-14T09:01:19.813Z,62.94
2023-05-14T09:02:19.698Z,62.71
2023-05-14T09:03:19.729Z,62.21
2023-05-14T09:04:19.676Z,62.30
2023-05-14T09:05:19.698Z,62.78
2023-05-14T09:06:19.673Z,62.58
2023-05-14T09:07:19.652Z,61.98
2023-05-14T09:08:19.620Z,63.18
2023-05-14T09:09:19.627Z,63.39
2023-05-14T09:10:19.602Z,62.07
2023-05-14T09:11:19.609Z,62.58
2023-05-14T09:12:19.598Z,62.68
2023-05-14T09:13:19.593Z,61.07
2023-05-14T09:14:19.551Z,61.57
2023-05-14T09:15:19.577Z,61.87
2023-05-14T09:16:19.536Z,62.38
2023-05-14T09:17:19.552Z,58.55
2023-05-14T09:18:19.510Z,59.26
2023-05-14T09:19:19.875Z,58.75
2023-05-14T09:20:19.516Z,59.16
2023-05-14T09:21:19.496Z,59.06
2023-05-14T09:22:19.466Z,59.76
2023-05-14T09:23:19.458Z,59.16
2023-05-14T09:24:19.459Z,58.45
2023-05-14T09:25:19.501Z,59.48
2023-05-14T09:26:19.403Z,58.21
2023-05-14T09:27:19.427Z,58.61
2023-05-14T09:28:19.443Z,58.71
2023-05-14T09:29:19.418Z,58.81
2023-05-14T09:30:19.387Z,59.62
2023-05-14T09:31:19.404Z,59.42
2023-05-14T09:32:19.366Z,59.42
2023-05-14T09:33:19.619Z,59.01
2023-05-14T09:34:19.355Z,58.31
2023-05-14T09:35:19.351Z,58.61
2023-05-14T09:36:19.342Z,58.41
2023-05-14T09:37:20.007Z,58.71
2023-05-14T09:38:19.283Z,57.90
2023-05-14T09:39:19.302Z,58.31
2023-05-14T09:40:19.290Z,58.21
2023-05-14T09:41:19.282Z,59.22
2023-05-14T09:42:19.277Z,58.81
2023-05-14T09:43:19.248Z,59.01
2023-05-14T09:44:19.225Z,59.69
2023-05-14T09:45:19.251Z,59.28
2023-05-14T09:46:19.234Z,59.01
2023-05-14T09:47:19.297Z,58.81
2023-05-14T09:48:19.219Z,59.42
2023-05-14T09:49:20.659Z,59.24
2023-05-14T09:50:19.129Z,59.82
2023-05-14T09:51:19.172Z,60.02
2023-05-14T09:52:19.176Z,61.03
2023-05-14T09:53:19.146Z,60.89
2023-05-14T09:54:19.092Z,60.80
2023-05-14T09:55:19.129Z,59.66
2023-05-14T09:56:19.094Z,59.56
2023-05-14T09:57:19.102Z,59.23
2023-05-14T09:58:19.056Z,58.62
2023-05-14T09:59:19.086Z,58.00
2023-05-14T10:00:19.297Z,58.70
2023-05-14T10:01:19.087Z,57.87
2023-05-14T10:02:19.017Z,57.97
2023-05-14T10:03:20.000Z,57.46
2023-05-14T10:04:19.049Z,56.74
2023-05-14T10:05:19.044Z,56.54
2023-05-14T10:06:18.966Z,57.04
2023-05-14T10:07:20.992Z,57.94
2023-05-14T10:08:18.944Z,56.43
2023-05-14T10:09:18.976Z,56.84
2023-05-14T10:10:18.942Z,57.24
2023-05-14T10:11:18.950Z,55.00
2023-05-14T10:12:18.901Z,56.51
2023-05-14T10:13:18.928Z,57.01
2023-05-14T10:14:18.897Z,57.31
2023-05-14T10:15:18.913Z,56.51
2023-05-14T10:16:18.989Z,56.78
2023-05-14T10:17:18.901Z,57.28
2023-05-14T10:18:18.880Z,56.56
2023-05-14T10:19:18.945Z,56.15
2023-05-14T10:20:18.812Z,55.75
2023-05-14T10:21:18.850Z,56.05
2023-05-14T10:22:18.797Z,55.93
2023-05-14T10:23:18.812Z,55.52
2023-05-14T10:24:18.754Z,53.50
2023-05-14T10:25:18.785Z,53.39
2023-05-14T10:26:18.731Z,53.30
2023-05-14T10:27:18.760Z,52.80
2023-05-14T10:28:18.775Z,53.50
2023-05-14T10:29:18.731Z,54.12
2023-05-14T10:30:18.739Z,54.52
2023-05-14T10:31:19.697Z,53.82
2023-05-14T10:32:18.662Z,54.45
2023-05-14T10:33:18.834Z,53.85
2023-05-14T10:34:18.649Z,54.27
2023-05-14T10:35:18.652Z,53.80
2023-05-14T10:36:18.726Z,54.93
2023-05-14T10:37:18.647Z,54.72
2023-05-14T10:38:18.625Z,55.33
2023-05-14T10:39:18.614Z,54.22
2023-05-14T10:40:18.635Z,54.75
2023-05-14T10:41:18.622Z,55.35
2023-05-14T10:42:18.560Z,55.76
2023-05-14T10:43:18.584Z,56.26
2023-05-14T10:44:18.528Z,54.93
2023-05-14T10:45:18.578Z,54.93
2023-05-14T10:46:18.562Z,55.20
2023-05-14T10:47:18.559Z,55.00
2023-05-14T10:48:18.496Z,54.30
2023-05-14T10:49:28.838Z,54.40
2023-05-14T10:50:20.442Z,54.90
2023-05-14T10:51:18.530Z,53.67
2023-05-14T10:52:18.460Z,53.67
2023-05-14T10:53:18.506Z,54.20
2023-05-14T10:54:18.410Z,54.20
2023-05-14T10:55:18.462Z,53.92
2023-05-14T10:56:18.403Z,53.82
2023-05-14T10:57:18.402Z,54.43
2023-05-14T10:58:18.385Z,54.20
2023-05-14T10:59:18.411Z,54.38
2023-05-14T11:00:18.391Z,54.95
2023-05-14T11:01:18.414Z,54.85
2023-05-14T11:02:18.355Z,54.55
2023-05-14T11:03:18.421Z,53.55
2023-05-14T11:04:18.367Z,52.94
2023-05-14T11:05:18.389Z,53.47
2023-05-14T11:06:18.284Z,53.77
2023-05-14T11:07:18.310Z,54.10
2023-05-14T11:08:18.265Z,54.00
2023-05-14T11:09:18.291Z,54.17
2023-05-14T11:10:18.427Z,54.17
2023-05-14T11:11:18.261Z,53.37
2023-05-14T11:12:18.229Z,52.67
2023-05-14T11:13:18.236Z,53.17
2023-05-14T11:14:18.197Z,53.59
2023-05-14T11:15:18.216Z,52.87
2023-05-14T11:17:18.218Z,52.77
2023-05-14T11:18:18.166Z,52.97
2023-05-14T11:19:18.221Z,52.55
2023-05-14T11:20:18.249Z,52.64
2023-05-14T11:21:18.178Z,52.72
2023-05-14T11:22:18.138Z,52.52
2023-05-14T11:23:18.128Z,51.92
2023-05-14T11:24:18.110Z,52.42
2023-05-14T11:25:18.107Z,52.24
2023-05-14T11:26:20.818Z,52.92
2023-05-14T11:27:18.078Z,53.62
2023-05-14T11:28:18.108Z,53.32
2023-05-14T11:29:18.037Z,52.01
2023-05-14T11:30:18.218Z,52.29
2023-05-14T11:31:18.100Z,52.09
2023-05-14T11:32:18.050Z,52.27
2023-05-14T11:33:18.050Z,52.17
2023-05-14T11:34:18.013Z,51.94
2023-05-14T11:35:18.023Z,51.44
2023-05-14T11:36:17.991Z,51.42
2023-05-14T11:37:17.950Z,51.02
2023-05-14T11:38:17.964Z,50.22
2023-05-14T11:39:17.952Z,50.22
2023-05-14T11:40:17.972Z,49.46
2023-05-14T11:41:17.949Z,50.26
2023-05-14T11:42:17.936Z,50.59
2023-05-14T11:43:19.350Z,51.99
2023-05-14T11:44:17.947Z,52.59
2023-05-14T11:45:17.887Z,52.59
2023-05-14T11:46:18.031Z,52.29
2023-05-14T11:47:17.831Z,52.82
2023-05-14T11:48:17.869Z,53.12
2023-05-14T11:49:17.812Z,52.82
2023-05-14T11:50:17.862Z,51.51
2023-05-14T11:51:17.834Z,51.14
2023-05-14T11:52:17.852Z,52.84
2023-05-14T11:53:17.787Z,52.57
2023-05-14T11:54:17.796Z,51.97
2023-05-14T11:55:17.777Z,51.76
2023-05-14T11:56:17.779Z,52.37
2023-05-14T11:57:17.744Z,52.37
2023-05-14T11:58:17.731Z,52.57
2023-05-14T11:59:17.724Z,51.97
2023-05-14T12:00:17.749Z,52.37
2023-05-14T12:01:17.735Z,51.06
2023-05-14T12:02:17.818Z,50.34
2023-05-14T12:03:17.811Z,49.91
2023-05-14T12:04:17.722Z,49.31
2023-05-14T12:05:17.650Z,49.41
2023-05-14T12:06:17.647Z,49.51
2023-05-14T12:07:17.620Z,48.93
2023-05-14T12:08:17.618Z,49.74
2023-05-14T12:09:17.598Z,49.51
2023-05-14T12:10:17.636Z,49.31
2023-05-14T12:11:17.576Z,50.81
2023-05-14T12:12:17.578Z,50.63
2023-05-14T12:13:17.569Z,50.54
2023-05-14T12:14:17.560Z,50.84
2023-05-14T12:15:17.539Z,51.14
2023-05-14T12:16:17.588Z,51.24
2023-05-14T12:17:17.500Z,50.92
2023-05-14T12:18:24.650Z,50.62
2023-05-14T12:19:18.516Z,49.71
2023-05-14T12:20:18.980Z,50.11
2023-05-14T12:21:17.469Z,50.51
2023-05-14T12:22:17.484Z,51.01
2023-05-14T12:23:17.437Z,50.62
2023-05-14T12:24:17.457Z,50.01
2023-05-14T12:25:17.410Z,49.61
2023-05-14T12:26:17.445Z,48.31
2023-05-14T12:27:17.404Z,48.83
2023-05-14T12:28:17.400Z,50.21
2023-05-14T12:29:17.359Z,49.13
2023-05-14T12:30:27.439Z,50.01
2023-05-14T12:31:18.377Z,49.51
2023-05-14T12:32:17.360Z,49.39
2023-05-14T12:33:17.351Z,48.28
2023-05-14T12:34:17.330Z,48.07
2023-05-14T12:35:17.363Z,47.96
2023-05-14T12:36:21.820Z,47.86
2023-05-14T12:37:18.289Z,48.04
2023-05-14T12:38:17.303Z,48.24
2023-05-14T12:39:17.274Z,47.61
2023-05-14T12:40:17.284Z,48.61
2023-05-14T12:41:17.237Z,49.02
2023-05-14T12:42:17.263Z,49.52
2023-05-14T12:43:17.202Z,50.12
2023-05-14T12:44:17.255Z,49.04
2023-05-14T12:45:17.178Z,49.07
2023-05-14T12:46:17.341Z,49.66
2023-05-14T12:47:17.313Z,49.76
2023-05-14T12:48:17.211Z,49.69
2023-05-14T12:49:18.127Z,48.99
2023-05-14T12:50:17.170Z,47.99
2023-05-14T12:51:17.120Z,48.49
2023-05-14T12:52:26.087Z,49.31
2023-05-14T12:53:18.092Z,50.31